Terminal Aerodrome Forecast
Issued by NWS

Home | Current Version | Previous Version | Text Only | Print | Product List | Glossary On
Versions: 1 2 3 4 5 6 7 8 9 10 11 12 13 14 15 16 17 18 19 20 21 22 23 24 25 26 27 28 29 30 31 32 33
000
FTUS46 KLOX 070500
TAFLAX
TAF
KLAX 070528Z 0706/0812 26008KT P6SM FEW025 BKN050
     FM070800 VRB03KT P6SM FEW025 OVC050
     FM071800 26008KT P6SM FEW025 BKN050
     FM072100 27014G20KT P6SM FEW025 BKN050
     FM080200 26012KT P6SM BKN025 OVC040
     FM080600 27008KT P6SM VCSH BKN025 OVC040=

USA.gov is the U.S. government's official web portal to all federal, state and local government web resources and services.